Terminal Aerodrome Forecast
Issued by NWS

Home | Current Version | Previous Version | Text Only | Print | Product List | Glossary On
Versions: 1 2 3 4 5 6 7 8 9 10 11 12 13 14 15 16 17 18 19 20 21
000
FTUS44 KMAF 281000 AAB
TAFFST
TAF AMD
KFST 281026Z 2810/2906 15015G25KT P6SM SCT200
     FM281800 14015G25KT P6SM SCT060 BKN250
     FM290200 16015KT P6SM FEW050 BKN200=

USA.gov is the U.S. government's official web portal to all federal, state and local government web resources and services.